Time;durP1;ratioP1;P1;durP2;ratioP2;P2;SDS_P1;SDS_P2;PMS_P1;PMS_P2;Temp;Humidity;BMP_temperature;BMP_pressure;BME280_temperature;BME280_humidity;BME280_pressure;Samples;Min_cycle;Max_cycle;Signal;HPM_P1;HPM_P2
2022/05/07 00:01:56;;;;;;;5.17;3.53;;;;;12.10;101755.00;;;;4941805;28;20232;-70
2022/05/07 00:04:43;;;;;;;6.50;4.03;;;;;12.10;101759.00;;;;4939297;28;20240;-70
2022/05/07 00:07:30;;;;;;;6.57;3.90;;;;;12.00;101757.00;;;;4944508;28;20872;-70
2022/05/07 00:10:18;;;;;;;7.20;3.73;;;;;12.00;101748.00;;;;4944887;28;20772;-71
2022/05/07 00:13:04;;;;;;;5.77;3.63;;;;;12.00;101749.00;;;;4946482;28;20313;-71
2022/05/07 00:18:55;;;;;;;7.23;3.53;;;;;11.80;101734.00;;;;4946535;28;20231;-71
2022/05/07 00:21:41;;;;;;;8.07;3.87;;;;;11.90;101732.00;;;;4939033;28;20228;-71
2022/05/07 00:24:27;;;;;;;7.37;4.33;;;;;11.80;101737.00;;;;4946513;28;20354;-70
2022/05/07 00:27:14;;;;;;;9.43;5.13;;;;;11.70;101737.00;;;;4946397;28;20813;-72
2022/05/07 00:33:24;;;;;;;6.23;4.53;;;;;11.80;101737.00;;;;5422754;23;20225;-73
2022/05/07 00:36:10;;;;;;;8.50;5.13;;;;;11.70;101737.00;;;;4941138;28;20252;-73
2022/05/07 00:38:57;;;;;;;7.50;4.57;;;;;11.60;101740.00;;;;4946640;28;20231;-72
2022/05/07 00:41:43;;;;;;;10.33;5.13;;;;;11.60;101731.00;;;;4945602;28;20239;-74
2022/05/07 00:44:31;;;;;;;7.77;5.27;;;;;11.70;101729.00;;;;4947076;28;20299;-72
2022/05/07 00:47:22;;;;;;;10.17;5.80;;;;;11.60;101712.00;;;;4949186;28;20239;-72
2022/05/07 00:53:13;;;;;;;11.17;5.70;;;;;11.50;101720.00;;;;4945347;28;20732;-73
2022/05/07 00:56:00;;;;;;;9.70;6.03;;;;;11.50;101720.00;;;;4943834;28;20820;-73
2022/05/07 00:58:47;;;;;;;11.50;6.23;;;;;11.50;101726.00;;;;4949798;28;20314;-72
2022/05/07 01:01:35;;;;;;;11.10;6.40;;;;;11.50;101713.00;;;;4949912;28;20228;-71
2022/05/07 01:04:22;;;;;;;12.83;7.17;;;;;11.50;101720.00;;;;4950565;28;20779;-74
2022/05/07 01:07:09;;;;;;;15.13;7.97;;;;;11.40;101715.00;;;;4950465;28;20243;-72
2022/05/07 01:09:55;;;;;;;15.83;8.10;;;;;11.50;101723.00;;;;4942828;28;20719;-72
2022/05/07 01:12:43;;;;;;;13.57;7.67;;;;;11.40;101722.00;;;;4949501;28;20239;-72
2022/05/07 01:15:29;;;;;;;11.13;6.57;;;;;11.30;101714.00;;;;4950090;28;20291;-72
2022/05/07 01:18:17;;;;;;;17.27;8.27;;;;;11.30;101692.00;;;;4955461;28;20314;-72
2022/05/07 01:21:12;;;;;;;16.77;7.93;;;;;11.30;101704.00;;;;4943741;28;20331;-72
2022/05/07 01:23:58;;;;;;;13.13;7.37;;;;;11.20;101713.00;;;;4942599;28;20369;-73
2022/05/07 01:26:44;;;;;;;12.87;7.10;;;;;11.20;101706.00;;;;4949612;28;20231;-71
2022/05/07 01:29:31;;;;;;;14.80;7.17;;;;;11.30;101710.00;;;;4949752;28;20283;-73
2022/05/07 01:32:17;;;;;;;12.50;7.10;;;;;11.20;101699.00;;;;4949414;28;20252;-73
2022/05/07 01:35:04;;;;;;;11.07;6.60;;;;;11.20;101697.00;;;;4943778;28;20235;-72
2022/05/07 01:37:51;;;;;;;14.57;7.50;;;;;11.20;101696.00;;;;4949307;28;20232;-72
2022/05/07 01:40:37;;;;;;;15.07;7.50;;;;;11.10;101694.00;;;;4949082;28;20248;-73
2022/05/07 01:43:26;;;;;;;12.37;7.00;;;;;11.10;101690.00;;;;4949270;28;20280;-73
2022/05/07 01:49:13;;;;;;;14.70;7.57;;;;;11.00;101693.00;;;;4948533;28;20231;-70
2022/05/07 01:51:59;;;;;;;11.53;6.90;;;;;11.10;101688.00;;;;4942766;28;20364;-73
2022/05/07 01:54:47;;;;;;;11.87;7.43;;;;;11.10;101691.00;;;;4948782;28;20241;-75
2022/05/07 01:57:33;;;;;;;11.70;7.40;;;;;11.00;101696.00;;;;4948954;28;20309;-72
2022/05/07 02:00:19;;;;;;;11.73;6.93;;;;;10.90;101696.00;;;;4949450;28;20288;-73
2022/05/07 02:03:05;;;;;;;15.03;8.17;;;;;11.00;101696.00;;;;4942666;28;20751;-74
2022/05/07 02:05:52;;;;;;;13.63;7.13;;;;;11.00;101683.00;;;;4941204;28;20716;-73
2022/05/07 02:08:38;;;;;;;14.73;8.40;;;;;10.90;101690.00;;;;4947168;28;20241;-73
2022/05/07 02:11:26;;;;;;;14.93;8.27;;;;;10.90;101694.00;;;;4945564;28;20239;-73
2022/05/07 02:14:12;;;;;;;14.13;7.10;;;;;10.90;101695.00;;;;4944040;28;20334;-74
2022/05/07 02:16:58;;;;;;;12.53;8.17;;;;;10.80;101690.00;;;;4944462;28;20254;-73
2022/05/07 02:19:49;;;;;;;15.17;7.60;;;;;10.80;101686.00;;;;4955610;28;20363;-72
2022/05/07 02:22:35;;;;;;;14.80;7.50;;;;;10.80;101687.00;;;;4948249;28;20719;-74
2022/05/07 02:25:22;;;;;;;12.63;7.30;;;;;10.80;101691.00;;;;4948975;28;20364;-72
2022/05/07 02:28:09;;;;;;;13.90;7.73;;;;;10.90;101688.00;;;;4943128;28;20365;-73
2022/05/07 02:30:56;;;;;;;14.03;7.40;;;;;10.70;101678.00;;;;4941464;28;20717;-73
2022/05/07 02:33:41;;;;;;;14.27;7.73;;;;;10.70;101677.00;;;;4947940;28;20231;-72
2022/05/07 02:36:28;;;;;;;15.50;7.80;;;;;10.80;101683.00;;;;4948501;28;20352;-72
2022/05/07 02:39:14;;;;;;;11.50;7.17;;;;;10.80;101685.00;;;;4948562;28;20617;-70
2022/05/07 02:45:07;;;;;;;13.37;8.33;;;;;10.60;101683.00;;;;4948456;28;20242;-71
2022/05/07 02:47:54;;;;;;;13.23;7.83;;;;;10.60;101684.00;;;;4940763;28;20319;-69
2022/05/07 02:50:40;;;;;;;13.27;7.53;;;;;10.60;101683.00;;;;4954154;28;20227;-73
2022/05/07 02:53:27;;;;;;;16.53;8.43;;;;;10.60;101690.00;;;;4948131;28;20238;-73
2022/05/07 02:56:13;;;;;;;14.60;7.60;;;;;10.50;101695.00;;;;4948425;28;20254;-73
2022/05/07 02:58:59;;;;;;;13.73;7.57;;;;;10.60;101680.00;;;;4941481;28;20235;-73
2022/05/07 03:01:47;;;;;;;15.13;7.60;;;;;10.60;101686.00;;;;4945508;28;20749;-73
2022/05/07 03:04:33;;;;;;;13.27;7.57;;;;;10.50;101686.00;;;;4945657;28;20232;-73
2022/05/07 03:07:19;;;;;;;16.20;8.70;;;;;10.50;101694.00;;;;4948150;28;20748;-71
2022/05/07 03:10:06;;;;;;;15.10;7.80;;;;;10.50;101682.00;;;;4941266;28;20262;-72
2022/05/07 03:12:52;;;;;;;14.50;7.67;;;;;10.50;101694.00;;;;4947747;28;20240;-74
2022/05/07 03:15:38;;;;;;;14.00;7.80;;;;;10.50;101685.00;;;;4947746;28;20228;-72
2022/05/07 03:18:26;;;;;;;13.47;7.57;;;;;10.50;101690.00;;;;4954778;28;20243;-74
2022/05/07 03:21:12;;;;;;;13.47;7.07;;;;;10.50;101687.00;;;;4950709;28;20699;-73
2022/05/07 03:23:58;;;;;;;14.30;7.93;;;;;10.40;101689.00;;;;4940664;28;20255;-72
2022/05/07 03:26:45;;;;;;;12.77;7.87;;;;;10.30;101684.00;;;;4947626;28;20239;-72
2022/05/07 03:29:31;;;;;;;13.70;8.30;;;;;10.20;101698.00;;;;4948097;28;20332;-72
2022/05/07 03:32:17;;;;;;;13.10;6.83;;;;;10.30;101678.00;;;;4947265;28;20276;-73
2022/05/07 03:35:05;;;;;;;14.13;7.27;;;;;10.30;101686.00;;;;4941370;28;20307;-73
2022/05/07 03:37:52;;;;;;;11.37;6.53;;;;;10.30;101678.00;;;;4947146;28;20375;-73
2022/05/07 03:40:38;;;;;;;14.67;7.40;;;;;10.30;101683.00;;;;4947134;28;20274;-71
2022/05/07 03:43:24;;;;;;;16.87;7.70;;;;;10.30;101682.00;;;;4950919;28;20249;-71
2022/05/07 03:46:11;;;;;;;13.07;7.93;;;;;10.30;101676.00;;;;4942009;28;20241;-73
2022/05/07 03:48:57;;;;;;;15.00;8.13;;;;;10.20;101679.00;;;;4942423;28;20235;-73
2022/05/07 03:54:45;;;;;;;16.67;7.30;;;;;10.30;101679.00;;;;4937843;28;20718;-73
2022/05/07 03:57:31;;;;;;;15.37;7.43;;;;;10.30;101680.00;;;;4947465;28;20240;-73
2022/05/07 04:00:18;;;;;;;15.70;7.97;;;;;10.30;101682.00;;;;4947340;28;20246;-73
2022/05/07 04:03:04;;;;;;;13.30;7.47;;;;;10.30;101681.00;;;;4940885;28;20307;-74
2022/05/07 04:05:51;;;;;;;14.70;7.50;;;;;10.30;101690.00;;;;4947176;28;20749;-74
2022/05/07 04:08:39;;;;;;;13.47;7.73;;;;;10.30;101678.00;;;;4946700;28;20364;-74
2022/05/07 04:11:25;;;;;;;13.50;7.43;;;;;10.40;101684.00;;;;4947333;28;20801;-73
2022/05/07 04:14:11;;;;;;;11.23;7.00;;;;;10.30;101683.00;;;;4946610;28;20739;-72
2022/05/07 04:16:58;;;;;;;12.40;7.80;;;;;10.40;101683.00;;;;4946999;28;20238;-73
2022/05/07 04:19:44;;;;;;;14.20;7.73;;;;;10.40;101684.00;;;;4953807;28;20230;-72
2022/05/07 04:22:32;;;;;;;14.93;8.50;;;;;10.40;101682.00;;;;4935437;28;20247;-73
2022/05/07 04:25:20;;;;;;;17.97;9.50;;;;;10.50;101681.00;;;;4946978;28;20844;-72
2022/05/07 04:28:06;;;;;;;16.30;9.07;;;;;10.50;101679.00;;;;4946971;28;20739;-74
2022/05/07 04:30:52;;;;;;;17.60;9.17;;;;;10.60;101682.00;;;;4946798;28;20752;-72
2022/05/07 04:33:39;;;;;;;17.43;9.80;;;;;10.60;101691.00;;;;4946041;28;20245;-73
2022/05/07 04:36:25;;;;;;;15.67;8.67;;;;;10.70;101694.00;;;;4947004;28;20242;-73
2022/05/07 04:39:11;;;;;;;17.10;9.30;;;;;10.80;101683.00;;;;4941087;28;20751;-72
2022/05/07 04:41:59;;;;;;;19.47;9.13;;;;;10.90;101688.00;;;;4945992;28;20319;-72
2022/05/07 04:44:45;;;;;;;17.73;9.37;;;;;10.90;101692.00;;;;4946326;28;20324;-72
2022/05/07 04:47:31;;;;;;;16.07;10.17;;;;;11.00;101690.00;;;;4946504;28;20258;-72
2022/05/07 04:50:18;;;;;;;16.70;9.33;;;;;11.00;101690.00;;;;4952935;28;20245;-72
2022/05/07 04:53:05;;;;;;;18.50;9.13;;;;;11.10;101695.00;;;;4932121;28;20243;-73
2022/05/07 04:55:51;;;;;;;17.03;9.30;;;;;11.10;101689.00;;;;4946391;28;20355;-72
2022/05/07 04:58:39;;;;;;;17.50;9.10;;;;;11.10;101693.00;;;;4946362;28;20239;-71
2022/05/07 05:01:25;;;;;;;22.50;9.93;;;;;11.20;101690.00;;;;4946792;28;20359;-68
2022/05/07 05:04:12;;;;;;;21.00;9.20;;;;;11.30;101698.00;;;;4946351;28;20819;-71
2022/05/07 05:06:58;;;;;;;18.73;9.80;;;;;11.30;101701.00;;;;4939743;28;20845;-71
2022/05/07 05:09:45;;;;;;;18.10;9.37;;;;;11.40;101704.00;;;;4945957;28;20755;-73
2022/05/07 05:12:31;;;;;;;16.63;10.00;;;;;11.40;101697.00;;;;4946248;28;20284;-72
2022/05/07 05:15:20;;;;;;;16.60;9.60;;;;;11.50;101712.00;;;;4946323;28;20338;-69
2022/05/07 05:18:07;;;;;;;16.97;8.90;;;;;11.60;101712.00;;;;4944613;28;20239;-69
2022/05/07 05:20:54;;;;;;;17.00;9.53;;;;;11.60;101703.00;;;;4941069;28;20248;-71
2022/05/07 05:23:46;;;;;;;17.60;9.30;;;;;11.60;101706.00;;;;4946004;28;20308;-70
2022/05/07 05:26:32;;;;;;;14.43;8.50;;;;;11.70;101709.00;;;;4946374;28;20315;-72
2022/05/07 05:29:19;;;;;;;14.90;8.90;;;;;11.80;101710.00;;;;4946202;28;20244;-72
2022/05/07 05:32:07;;;;;;;16.80;9.00;;;;;11.90;101708.00;;;;4938248;28;20343;-70
2022/05/07 05:34:54;;;;;;;17.80;9.27;;;;;12.00;101721.00;;;;4941746;28;20858;-73
2022/05/07 05:37:40;;;;;;;15.77;9.10;;;;;12.10;101718.00;;;;4949555;28;20231;-71
2022/05/07 05:40:27;;;;;;;16.03;9.33;;;;;12.20;101722.00;;;;4949780;28;20323;-71
2022/05/07 05:43:13;;;;;;;16.57;9.87;;;;;12.30;101719.00;;;;4943860;28;20248;-71
2022/05/07 05:45:59;;;;;;;14.50;8.77;;;;;12.40;101708.00;;;;4942978;28;20308;-72
2022/05/07 05:48:47;;;;;;;13.17;8.37;;;;;12.60;101723.00;;;;4950033;28;20235;-71
2022/05/07 05:51:33;;;;;;;15.63;8.30;;;;;12.70;101726.00;;;;4952420;28;20240;-71
2022/05/07 05:54:19;;;;;;;13.13;8.10;;;;;12.70;101724.00;;;;4949348;28;20252;-71
2022/05/07 05:57:06;;;;;;;14.33;7.63;;;;;13.00;101724.00;;;;4942972;28;20256;-71
2022/05/07 05:59:52;;;;;;;14.70;8.30;;;;;13.00;101725.00;;;;4949367;28;20235;-71
2022/05/07 06:02:38;;;;;;;11.63;7.70;;;;;13.20;101730.00;;;;4948613;28;20235;-71
2022/05/07 06:05:26;;;;;;;12.20;7.10;;;;;13.30;101731.00;;;;4949369;28;20319;-71
2022/05/07 06:08:13;;;;;;;15.07;8.50;;;;;13.40;101722.00;;;;4943861;28;20268;-71
2022/05/07 06:11:00;;;;;;;13.03;7.70;;;;;13.40;101727.00;;;;4942380;28;20933;-70
2022/05/07 06:13:47;;;;;;;13.20;7.47;;;;;13.50;101728.00;;;;4948271;28;20239;-71
2022/05/07 06:16:33;;;;;;;11.83;6.87;;;;;13.60;101726.00;;;;4948692;28;20295;-72
2022/05/07 06:19:19;;;;;;;16.23;7.10;;;;;13.60;101725.00;;;;4956146;28;20818;-72
2022/05/07 06:22:07;;;;;;;14.43;7.50;;;;;13.70;101727.00;;;;4942105;28;20272;-71
2022/05/07 06:28:00;;;;;;;13.63;8.17;;;;;13.90;101739.00;;;;4941259;28;20332;-73
2022/05/07 06:30:46;;;;;;;17.40;8.77;;;;;14.00;101728.00;;;;4948552;28;20243;-72
2022/05/07 06:33:33;;;;;;;22.43;12.47;;;;;14.00;101739.00;;;;4948616;28;20240;-72
2022/05/07 06:36:19;;;;;;;24.33;12.57;;;;;14.10;101728.00;;;;4948690;28;20902;-73
2022/05/07 06:39:07;;;;;;;16.40;9.83;;;;;14.30;101735.00;;;;4948877;28;21010;-70
2022/05/07 06:41:55;;;;;;;21.90;12.50;;;;;14.30;101730.00;;;;4947811;28;20252;-73
2022/05/07 06:44:41;;;;;;;23.03;12.40;;;;;14.40;101736.00;;;;4948954;28;20244;-72
2022/05/07 06:47:27;;;;;;;24.43;14.30;;;;;14.50;101730.00;;;;4949099;28;20237;-72
2022/05/07 06:50:14;;;;;;;25.17;12.97;;;;;14.60;101735.00;;;;4951476;28;20998;-72
2022/05/07 06:53:00;;;;;;;27.60;13.67;;;;;14.60;101722.00;;;;4948225;28;20659;-70
2022/05/07 06:55:56;;;;;;;27.63;14.17;;;;;14.70;101730.00;;;;4948016;28;20231;-72
2022/05/07 06:58:42;;;;;;;24.07;13.13;;;;;14.80;101738.00;;;;4946834;28;20233;-72
2022/05/07 07:01:29;;;;;;;24.23;13.20;;;;;14.90;101729.00;;;;4948335;28;20372;-71
2022/05/07 07:04:15;;;;;;;25.23;13.70;;;;;15.00;101729.00;;;;4943109;28;20263;-70
2022/05/07 07:07:01;;;;;;;25.57;13.13;;;;;15.20;101738.00;;;;4948403;28;20243;-71
2022/05/07 07:09:47;;;;;;;29.30;13.87;;;;;15.20;101733.00;;;;4947553;28;20253;-71
2022/05/07 07:12:40;;;;;;;26.67;13.17;;;;;15.30;101730.00;;;;4947730;28;20240;-70
2022/05/07 07:15:26;;;;;;;30.47;14.10;;;;;15.50;101734.00;;;;4948108;28;20237;-71
2022/05/07 07:18:12;;;;;;;25.80;13.47;;;;;15.60;101730.00;;;;4947492;28;20304;-72
2022/05/07 07:20:58;;;;;;;24.77;13.07;;;;;15.80;101737.00;;;;4940911;28;20281;-72
2022/05/07 07:23:45;;;;;;;27.77;14.13;;;;;15.80;101733.00;;;;4947138;28;20618;-72
2022/05/07 07:26:31;;;;;;;25.80;13.60;;;;;15.90;101739.00;;;;4947579;28;20270;-71
2022/05/07 07:29:19;;;;;;;23.10;13.97;;;;;15.90;101736.00;;;;4947491;28;20239;-73
2022/05/07 07:32:06;;;;;;;26.47;13.77;;;;;16.20;101739.00;;;;4937612;28;20716;-72
2022/05/07 07:34:52;;;;;;;24.13;13.33;;;;;16.10;101745.00;;;;4947433;28;20231;-71
2022/05/07 07:37:39;;;;;;;25.73;13.80;;;;;16.20;101747.00;;;;4947348;28;20243;-71
2022/05/07 07:40:25;;;;;;;22.87;13.00;;;;;16.30;101739.00;;;;4947701;28;20243;-70
2022/05/07 07:43:12;;;;;;;27.93;13.97;;;;;16.40;101745.00;;;;4946994;28;20371;-71
2022/05/07 07:49:04;;;;;;;29.17;13.80;;;;;16.80;101742.00;;;;4944057;28;20228;-70
2022/05/07 07:51:50;;;;;;;24.10;13.27;;;;;16.90;101741.00;;;;4947689;28;20239;-71
2022/05/07 07:54:36;;;;;;;26.57;13.87;;;;;17.00;101745.00;;;;4947327;28;20780;-71
2022/05/07 07:57:22;;;;;;;29.00;15.10;;;;;17.20;101746.00;;;;4947151;28;20243;-68
2022/05/07 08:00:14;;;;;;;25.77;13.30;;;;;17.30;101741.00;;;;4942295;28;20240;-70
2022/05/07 08:03:04;;;;;;;24.73;14.00;;;;;17.50;101742.00;;;;4940272;28;20731;-71
2022/05/07 08:05:52;;;;;;;28.73;13.70;;;;;17.70;101747.00;;;;4947065;28;20240;-71
2022/05/07 08:11:46;;;;;;;24.07;13.43;;;;;17.80;101749.00;;;;4946950;28;20239;-71
2022/05/07 08:14:32;;;;;;;27.47;13.97;;;;;17.90;101759.00;;;;4947007;28;20305;-72
2022/05/07 08:17:19;;;;;;;29.43;14.27;;;;;17.90;101746.00;;;;4942202;28;20232;-71
2022/05/07 08:20:10;;;;;;;25.33;13.90;;;;;17.90;101756.00;;;;4947032;28;20240;-71
2022/05/07 08:22:57;;;;;;;23.97;13.73;;;;;17.90;101752.00;;;;4946781;28;20280;-69
2022/05/07 08:25:43;;;;;;;25.93;14.47;;;;;18.00;101756.00;;;;4946812;28;20291;-71
2022/05/07 08:28:29;;;;;;;30.33;15.87;;;;;18.20;101752.00;;;;4946747;28;20224;-71
2022/05/07 08:31:15;;;;;;;31.33;15.17;;;;;18.30;101763.00;;;;4941725;28;20235;-71
2022/05/07 08:34:02;;;;;;;28.03;13.93;;;;;18.40;101767.00;;;;4946905;28;20255;-70
2022/05/07 08:36:49;;;;;;;26.53;14.43;;;;;18.70;101761.00;;;;4946562;28;20276;-71
2022/05/07 08:39:36;;;;;;;24.30;13.47;;;;;18.80;101761.00;;;;4946643;28;20239;-71
2022/05/07 08:42:22;;;;;;;25.47;13.97;;;;;19.00;101756.00;;;;4953273;28;20337;-72
2022/05/07 08:45:09;;;;;;;27.03;13.07;;;;;19.10;101762.00;;;;4940827;28;20316;-72
2022/05/07 08:47:55;;;;;;;22.17;12.80;;;;;19.40;101753.00;;;;4939169;28;20717;-71
2022/05/07 08:50:43;;;;;;;24.10;13.03;;;;;19.40;101758.00;;;;4950492;28;20615;-71
2022/05/07 08:53:31;;;;;;;23.30;12.30;;;;;19.60;101754.00;;;;4946563;28;20311;-70
2022/05/07 08:56:18;;;;;;;19.47;11.97;;;;;19.80;101755.00;;;;4943868;28;20243;-71
2022/05/07 08:59:04;;;;;;;21.90;12.13;;;;;19.80;101751.00;;;;4946832;28;20235;-71
2022/05/07 09:01:50;;;;;;;27.87;15.97;;;;;20.00;101755.00;;;;4946104;28;20390;-71
2022/05/07 09:04:37;;;;;;;25.20;11.97;;;;;20.20;101745.00;;;;4946375;28;20240;-70
2022/05/07 09:07:24;;;;;;;21.27;10.73;;;;;20.00;101751.00;;;;4947711;28;20619;-71
2022/05/07 09:10:12;;;;;;;21.60;11.43;;;;;20.10;101753.00;;;;4947473;28;20773;-72
2022/05/07 09:13:11;;;;;;;25.10;11.30;;;;;20.20;101746.00;;;;4942638;28;20251;-70
2022/05/07 09:15:58;;;;;;;16.53;9.10;;;;;20.40;101738.00;;;;4942490;28;20232;-71
2022/05/07 09:18:49;;;;;;;19.87;9.63;;;;;20.50;101748.00;;;;4956520;28;20266;-71
2022/05/07 09:21:35;;;;;;;22.20;11.07;;;;;20.80;101750.00;;;;4950119;28;20705;-70
2022/05/07 09:24:22;;;;;;;21.67;11.20;;;;;20.90;101750.00;;;;4949914;28;20619;-68
2022/05/07 09:27:16;;;;;;;22.40;11.20;;;;;21.00;101747.00;;;;4950305;28;20331;-72
2022/05/07 09:30:04;;;;;;;20.07;10.50;;;;;21.10;101754.00;;;;4943550;28;20241;-71
2022/05/07 09:32:52;;;;;;;27.57;15.30;;;;;21.10;101749.00;;;;4949136;28;20241;-71
2022/05/07 09:35:51;;;;;;;24.87;13.40;;;;;21.00;101749.00;;;;4949453;28;20726;-71
2022/05/07 09:38:38;;;;;;;22.50;12.40;;;;;21.10;101753.00;;;;4949362;28;20665;-68
2022/05/07 09:41:24;;;;;;;21.03;11.27;;;;;21.30;101746.00;;;;4956123;28;20362;-71
2022/05/07 09:44:12;;;;;;;20.67;11.13;;;;;21.50;101747.00;;;;4943395;28;20312;-70
2022/05/07 09:46:59;;;;;;;20.23;10.77;;;;;21.70;101746.00;;;;4949543;28;20359;-72
2022/05/07 09:58:53;;;;;;;22.57;11.37;;;;;22.20;101744.00;;;;4949021;28;20278;-68
2022/05/07 10:01:55;;;;;;;19.97;11.43;;;;;22.50;101743.00;;;;4944153;28;20274;-72
2022/05/07 10:04:53;;;;;;;20.07;11.80;;;;;22.50;101736.00;;;;4948824;28;20239;-71
2022/05/07 10:07:52;;;;;;;24.77;12.63;;;;;22.60;101734.00;;;;4948838;28;20232;-71
2022/05/07 10:10:40;;;;;;;23.40;10.80;;;;;22.60;101734.00;;;;4949095;28;20241;-70
2022/05/07 10:13:27;;;;;;;21.53;11.27;;;;;22.70;101738.00;;;;4949293;28;20740;-70
2022/05/07 10:16:20;;;;;;;18.67;10.30;;;;;22.90;101738.00;;;;4949113;28;20616;-71
2022/05/07 10:19:11;;;;;;;19.40;11.00;;;;;22.90;101728.00;;;;4947219;28;20256;-68
2022/05/07 10:21:57;;;;;;;23.33;11.63;;;;;23.10;101734.00;;;;4949182;28;20591;-73
2022/05/07 10:24:44;;;;;;;20.73;11.10;;;;;23.10;101730.00;;;;4949387;28;20260;-71
2022/05/07 10:27:33;;;;;;;19.47;10.57;;;;;23.50;101732.00;;;;4949316;28;20411;-72
2022/05/07 10:30:22;;;;;;;22.67;11.77;;;;;23.60;101730.00;;;;4948820;28;20239;-73
2022/05/07 10:33:08;;;;;;;18.33;10.57;;;;;23.70;101729.00;;;;4942308;28;20736;-72
2022/05/07 10:35:58;;;;;;;17.07;8.77;;;;;23.90;101724.00;;;;4949560;28;20390;-71
2022/05/07 10:38:46;;;;;;;18.47;10.20;;;;;24.10;101723.00;;;;4948567;28;20720;-72
2022/05/07 10:41:32;;;;;;;25.20;11.17;;;;;24.20;101714.00;;;;4955636;28;20234;-69
2022/05/07 10:44:31;;;;;;;20.73;10.73;;;;;24.00;101721.00;;;;4948314;28;20776;-69
2022/05/07 10:47:19;;;;;;;17.27;9.70;;;;;24.10;101727.00;;;;4943486;28;20773;-71
2022/05/07 10:50:10;;;;;;;14.27;9.27;;;;;23.80;101722.00;;;;4948594;28;20232;-69
2022/05/07 10:52:58;;;;;;;17.00;9.03;;;;;23.70;101723.00;;;;4948233;28;20239;-71
2022/05/07 10:55:44;;;;;;;19.57;10.53;;;;;23.80;101717.00;;;;4948178;28;20227;-71
2022/05/07 10:58:31;;;;;;;19.43;9.30;;;;;23.60;101715.00;;;;4948585;28;20605;-71
2022/05/07 11:01:19;;;;;;;19.03;11.40;;;;;23.30;101710.00;;;;4948456;28;20243;-71
2022/05/07 11:04:06;;;;;;;18.23;11.00;;;;;23.00;101716.00;;;;4941642;28;20235;-72
2022/05/07 11:06:53;;;;;;;19.77;10.80;;;;;22.80;101713.00;;;;4947574;28;20973;-72
2022/05/07 11:09:48;;;;;;;17.97;10.27;;;;;22.40;101721.00;;;;4947737;28;20736;-71
2022/05/07 11:12:36;;;;;;;19.07;11.07;;;;;22.20;101730.00;;;;4947770;28;20623;-72
2022/05/07 11:15:26;;;;;;;19.83;10.67;;;;;22.20;101711.00;;;;4947666;28;20315;-76
2022/05/07 11:18:16;;;;;;;14.73;9.57;;;;;22.20;101733.00;;;;4947134;28;20346;-71
2022/05/07 11:21:04;;;;;;;13.27;8.37;;;;;22.00;101726.00;;;;4940979;28;20246;-70
2022/05/07 11:23:54;;;;;;;14.77;7.37;;;;;22.00;101728.00;;;;4946999;28;20234;-71
2022/05/07 11:26:42;;;;;;;13.60;7.70;;;;;21.80;101732.00;;;;4947421;28;20244;-72
2022/05/07 11:29:29;;;;;;;16.17;9.23;;;;;22.00;101726.00;;;;4947754;28;20723;-71
2022/05/07 11:32:15;;;;;;;16.73;8.87;;;;;22.00;101729.00;;;;4942980;28;20247;-72
2022/05/07 11:35:01;;;;;;;14.67;8.37;;;;;22.10;101722.00;;;;4947856;28;20308;-71
2022/05/07 11:37:47;;;;;;;15.07;8.33;;;;;22.10;101717.00;;;;4946588;28;20286;-72
2022/05/07 11:40:34;;;;;;;15.37;9.33;;;;;22.40;101722.00;;;;4947817;28;20243;-71
2022/05/07 11:46:26;;;;;;;18.60;9.87;;;;;22.10;101716.00;;;;4943272;28;20255;-72
2022/05/07 11:49:12;;;;;;;13.70;8.93;;;;;22.10;101682.00;;;;4945904;28;20239;-72
2022/05/07 11:52:06;;;;;;;14.57;9.20;;;;;22.20;101697.00;;;;4939850;28;20287;-71
2022/05/07 11:54:53;;;;;;;17.60;9.23;;;;;22.50;101701.00;;;;4946630;28;20403;-71
2022/05/07 11:57:43;;;;;;;18.57;9.37;;;;;22.90;101705.00;;;;4945230;28;20817;-73
2022/05/07 12:00:31;;;;;;;13.13;8.00;;;;;23.50;101687.00;;;;4947463;28;20233;-72
2022/05/07 12:03:18;;;;;;;15.03;8.83;;;;;23.90;101710.00;;;;4943957;28;20240;-72
2022/05/07 12:06:05;;;;;;;15.57;9.40;;;;;23.50;101692.00;;;;4940539;28;20240;-71
2022/05/07 12:08:51;;;;;;;14.23;8.10;;;;;23.40;101699.00;;;;4946815;28;20260;-70
2022/05/07 12:11:38;;;;;;;13.60;8.63;;;;;23.50;101695.00;;;;4946634;28;20861;-71
2022/05/07 12:14:24;;;;;;;18.10;8.40;;;;;23.20;101693.00;;;;4946975;28;20435;-70
2022/05/07 12:20:15;;;;;;;11.13;7.40;;;;;23.30;101701.00;;;;4946937;28;20601;-69
2022/05/07 12:32:15;;;;;;;15.93;8.77;;;;;24.40;101686.00;;;;4940760;28;20337;-71
2022/05/07 12:35:01;;;;;;;14.50;8.93;;;;;24.60;101687.00;;;;4939811;28;20623;-73
2022/05/07 12:37:47;;;;;;;13.77;8.63;;;;;24.70;101683.00;;;;4945403;28;20813;-71
2022/05/07 12:40:33;;;;;;;13.73;7.93;;;;;24.80;101682.00;;;;4946749;28;20231;-71
2022/05/07 12:43:20;;;;;;;13.13;8.20;;;;;25.20;101681.00;;;;4944283;28;20612;-72
2022/05/07 12:46:06;;;;;;;16.07;8.23;;;;;25.50;101675.00;;;;4944557;28;20323;-70
2022/05/07 12:48:55;;;;;;;16.67;8.87;;;;;25.90;101672.00;;;;4952034;28;20316;-72
2022/05/07 12:51:42;;;;;;;11.20;7.50;;;;;25.40;101673.00;;;;4952277;28;20236;-68
2022/05/07 12:54:28;;;;;;;11.53;7.50;;;;;25.20;101668.00;;;;4950910;28;20235;-71
2022/05/07 12:57:14;;;;;;;15.63;9.13;;;;;24.70;101666.00;;;;4945155;28;20245;-70
2022/05/07 13:00:01;;;;;;;18.33;8.90;;;;;24.50;101663.00;;;;4943303;28;20244;-71
2022/05/07 13:02:52;;;;;;;10.80;7.37;;;;;24.40;101664.00;;;;4949833;28;20279;-74
2022/05/07 13:05:40;;;;;;;11.83;8.07;;;;;24.10;101659.00;;;;4950129;28;20248;-71
2022/05/07 13:08:42;;;;;;;9.97;6.73;;;;;24.10;101649.00;;;;4950055;28;20745;-72
2022/05/07 13:11:28;;;;;;;9.93;6.70;;;;;25.00;101659.00;;;;4950808;28;20296;-70
2022/05/07 13:14:15;;;;;;;11.53;7.33;;;;;25.50;101663.00;;;;4944521;28;20638;-71
2022/05/07 13:17:01;;;;;;;12.70;7.00;;;;;26.10;101665.00;;;;4947878;28;20625;-70
2022/05/07 13:19:47;;;;;;;13.70;7.47;;;;;26.70;101658.00;;;;4957535;28;20307;-71
2022/05/07 13:22:35;;;;;;;8.13;5.67;;;;;26.70;101658.00;;;;4950070;28;20264;-72
2022/05/07 13:25:22;;;;;;;9.67;5.30;;;;;27.10;101653.00;;;;4950127;28;20240;-72
2022/05/07 13:28:09;;;;;;;11.53;6.17;;;;;26.70;101656.00;;;;4943673;28;20844;-73
2022/05/07 13:30:56;;;;;;;13.27;6.82;;;;;27.00;101647.00;;;;4949941;28;20311;-73
2022/05/07 13:33:42;;;;;;;9.23;6.32;;;;;27.20;101651.00;;;;4947489;28;20342;-72
2022/05/07 13:36:29;;;;;;;12.13;7.35;;;;;27.60;101645.00;;;;4949951;28;20228;-72
2022/05/07 13:39:17;;;;;;;11.35;6.18;;;;;27.60;101654.00;;;;4944192;28;20256;-72
2022/05/07 13:42:05;;;;;;;9.88;6.57;;;;;27.70;101644.00;;;;4949848;28;20231;-72
2022/05/07 13:44:51;;;;;;;11.60;6.47;;;;;27.40;101645.00;;;;4949402;28;20323;-72
2022/05/07 13:47:38;;;;;;;8.60;5.63;;;;;26.90;101658.00;;;;4949217;28;20353;-72
2022/05/07 13:50:24;;;;;;;7.53;5.00;;;;;26.20;101665.00;;;;4956380;28;20364;-73
2022/05/07 13:53:10;;;;;;;9.40;4.70;;;;;25.60;101652.00;;;;4942928;28;20319;-73
2022/05/07 13:55:58;;;;;;;7.80;4.55;;;;;25.40;101650.00;;;;4949020;28;20882;-72
2022/05/07 13:58:44;;;;;;;6.45;4.82;;;;;25.00;101650.00;;;;4949117;28;20231;-71
2022/05/07 14:01:30;;;;;;;8.70;5.17;;;;;25.60;101650.00;;;;4949656;28;20236;-72
2022/05/07 14:04:17;;;;;;;15.68;6.63;;;;;26.30;101648.00;;;;4944060;28;20869;-72
2022/05/07 14:07:03;;;;;;;8.63;6.10;;;;;26.00;101645.00;;;;4942562;28;20248;-72
2022/05/07 14:09:49;;;;;;;8.30;6.15;;;;;26.80;101637.00;;;;4948658;28;20235;-72
2022/05/07 14:12:37;;;;;;;10.82;6.07;;;;;27.50;101639.00;;;;4949007;28;20405;-72
2022/05/07 14:15:23;;;;;;;9.73;5.40;;;;;28.30;101638.00;;;;4949179;28;20339;-69
2022/05/07 14:18:10;;;;;;;9.65;6.30;;;;;27.70;101638.00;;;;4947759;28;20238;-72
2022/05/07 14:21:02;;;;;;;7.72;6.00;;;;;26.80;101643.00;;;;4941898;28;20251;-72
2022/05/07 14:23:48;;;;;;;8.80;6.20;;;;;25.80;101644.00;;;;4948531;28;20645;-72
2022/05/07 14:26:35;;;;;;;8.82;5.43;;;;;25.30;101645.00;;;;4948890;28;20327;-73
2022/05/07 14:29:22;;;;;;;9.90;4.90;;;;;24.80;101646.00;;;;4948705;28;20254;-71